Time;durP1;ratioP1;P1;durP2;ratioP2;P2;SDS_P1;SDS_P2;PMS_P1;PMS_P2;Temp;Humidity;BMP_temperature;BMP_pressure;BME280_temperature;BME280_humidity;BME280_pressure;Samples;Min_cycle;Max_cycle;Signal;HPM_P1;HPM_P2
2021/11/25 00:00:26;;;;;;;1.63;1.20;;;;;;;3.05;72.17;99092.56;5052944;28;20041;-61
2021/11/25 00:02:52;;;;;;;1.55;1.30;;;;;;;2.92;72.68;99081.88;5053228;28;20036;-58
2021/11/25 00:05:18;;;;;;;2.22;1.50;;;;;;;2.62;72.55;99040.47;5053302;28;20059;-59
2021/11/25 00:07:43;;;;;;;2.28;1.67;;;;;;;2.91;73.42;99089.91;5052735;28;20072;-58
2021/11/25 00:10:10;;;;;;;1.73;1.40;;;;;;;2.90;72.92;99091.72;5052819;28;20421;-57
2021/11/25 00:12:36;;;;;;;1.85;1.40;;;;;;;2.88;73.54;99093.56;5053057;28;20033;-57
2021/11/25 00:15:04;;;;;;;1.77;1.52;;;;;;;2.62;73.13;99058.97;5053190;28;20082;-53
2021/11/25 00:17:30;;;;;;;1.25;1.15;;;;;;;2.57;73.46;99063.69;5052606;28;20357;-61
2021/11/25 00:19:55;;;;;;;2.38;1.50;;;;;;;2.80;73.65;99101.97;5052641;28;20036;-58
2021/11/25 00:22:21;;;;;;;1.80;1.35;;;;;;;2.74;73.60;99091.75;5053116;28;20025;-58
2021/11/25 00:24:47;;;;;;;1.40;1.30;;;;;;;2.83;74.11;99101.78;5053225;28;20028;-59
2021/11/25 00:27:12;;;;;;;1.50;1.40;;;;;;;2.69;73.38;99070.03;5052294;28;20037;-59
2021/11/25 00:29:38;;;;;;;1.48;1.10;;;;;;;2.97;73.20;99110.66;5052367;28;20045;-59
2021/11/25 00:32:04;;;;;;;2.40;1.20;;;;;;;2.96;73.07;99120.41;5052555;28;20558;-61
2021/11/25 00:34:30;;;;;;;2.13;1.20;;;;;;;2.99;73.48;99119.34;5053006;28;20045;-57
2021/11/25 00:36:55;;;;;;;2.15;1.20;;;;;;;3.01;73.20;99123.63;5052486;28;20479;-60
2021/11/25 00:39:21;;;;;;;1.70;1.20;;;;;;;3.04;73.30;99121.72;5052275;28;20037;-59
2021/11/25 00:41:47;;;;;;;1.13;1.00;;;;;;;3.03;72.83;99126.19;5052463;28;20029;-56
2021/11/25 00:44:14;;;;;;;3.13;1.30;;;;;;;2.94;72.69;99117.00;5052817;28;20354;-56
2021/11/25 00:46:39;;;;;;;1.35;1.20;;;;;;;2.94;73.43;99132.88;5052294;28;20461;-56
2021/11/25 00:49:05;;;;;;;1.42;1.25;;;;;;;3.01;72.15;99138.63;5051927;28;20100;-59
2021/11/25 00:51:30;;;;;;;1.63;1.05;;;;;;;2.94;72.37;99140.81;5052480;28;20025;-57
2021/11/25 00:53:56;;;;;;;2.22;1.23;;;;;;;2.93;72.60;99136.47;5051143;28;20036;-58
2021/11/25 00:56:22;;;;;;;1.17;1.05;;;;;;;2.87;73.21;99132.38;5045303;28;20020;-59
2021/11/25 00:58:47;;;;;;;2.33;1.30;;;;;;;2.91;72.69;99148.94;5051794;28;20071;-59
2021/11/25 01:01:13;;;;;;;1.05;0.95;;;;;;;2.98;72.89;99142.31;5051570;28;20129;-57
2021/11/25 01:03:40;;;;;;;2.58;1.10;;;;;;;2.99;71.76;99148.44;5051566;28;20049;-56
2021/11/25 01:06:06;;;;;;;1.70;0.80;;;;;;;2.96;72.17;99149.50;5051678;28;20029;-56
2021/11/25 01:08:31;;;;;;;1.40;0.88;;;;;;;2.92;71.78;99155.06;5051782;28;20037;-53
2021/11/25 01:10:57;;;;;;;2.35;0.90;;;;;;;2.89;72.07;99147.31;5051585;28;20333;-60
2021/11/25 01:13:23;;;;;;;0.77;0.60;;;;;;;2.82;72.11;99141.53;5051523;28;20040;-52
2021/11/25 01:15:49;;;;;;;0.80;0.60;;;;;;;2.80;72.36;99157.50;5050958;28;20021;-57
2021/11/25 01:18:17;;;;;;;1.05;0.60;;;;;;;2.85;72.60;99166.00;5051501;28;20060;-57
2021/11/25 01:20:44;;;;;;;0.90;0.52;;;;;;;2.80;72.55;99162.78;5051168;28;20039;-56
2021/11/25 01:23:14;;;;;;;0.55;0.47;;;;;;;2.89;72.39;99164.00;5051284;28;20037;-60
2021/11/25 01:25:40;;;;;;;1.10;0.68;;;;;;;2.80;72.56;99165.44;5050877;28;20028;-56
2021/11/25 01:28:12;;;;;;;1.67;0.65;;;;;;;2.81;72.16;99168.91;5051543;28;20109;-61
2021/11/25 01:30:39;;;;;;;1.90;0.75;;;;;;;2.85;72.16;99178.34;5051233;28;20407;-59
2021/11/25 01:33:04;;;;;;;1.42;0.80;;;;;;;2.81;71.74;99153.03;5051819;28;20029;-55
2021/11/25 01:35:30;;;;;;;1.83;0.77;;;;;;;2.97;71.38;99180.28;5051291;28;20032;-59
2021/11/25 01:37:55;;;;;;;1.48;0.77;;;;;;;2.96;71.31;99185.66;5050615;28;21007;-59
2021/11/25 01:40:21;;;;;;;1.52;0.90;;;;;;;2.97;71.16;99184.72;5051537;28;20033;-60
2021/11/25 01:42:46;;;;;;;2.35;0.90;;;;;;;2.97;71.58;99190.88;5051537;28;20029;-59
2021/11/25 01:45:13;;;;;;;1.92;0.90;;;;;;;2.99;71.34;99194.28;5051089;28;20025;-58
2021/11/25 01:47:46;;;;;;;2.00;0.93;;;;;;;3.14;70.89;99202.25;5050881;28;20036;-58
2021/11/25 01:50:17;;;;;;;2.05;0.88;;;;;;;3.09;71.48;99201.63;5051557;28;20025;-58
2021/11/25 01:52:44;;;;;;;1.50;0.90;;;;;;;3.05;71.17;99206.28;5050867;28;20032;-60
2021/11/25 01:55:12;;;;;;;0.95;0.82;;;;;;;3.08;71.06;99206.09;5050863;28;20043;-59
2021/11/25 01:57:38;;;;;;;3.92;1.27;;;;;;;3.04;71.24;99209.00;5049966;28;20036;-61
2021/11/25 02:00:08;;;;;;;1.85;1.00;;;;;;;3.05;70.94;99203.63;5051507;28;20037;-56
2021/11/25 02:02:33;;;;;;;1.90;0.90;;;;;;;3.14;70.82;99211.00;5051260;28;20025;-57
2021/11/25 02:04:59;;;;;;;1.58;0.80;;;;;;;3.14;71.02;99208.38;5050747;28;20428;-59
2021/11/25 02:07:24;;;;;;;1.55;0.85;;;;;;;3.19;70.38;99213.41;5051122;28;20114;-56
2021/11/25 02:09:50;;;;;;;1.40;0.90;;;;;;;3.20;70.58;99222.16;5051328;28;20028;-54
2021/11/25 02:12:16;;;;;;;2.65;1.10;;;;;;;3.11;70.77;99212.97;5050859;28;20059;-58
2021/11/25 02:14:41;;;;;;;2.88;0.98;;;;;;;3.08;70.67;99221.09;5050322;28;20033;-58
2021/11/25 02:17:07;;;;;;;2.38;1.20;;;;;;;3.02;70.93;99230.28;5049892;28;20040;-56
2021/11/25 02:19:34;;;;;;;3.28;1.80;;;;;;;2.96;71.96;99233.25;5051113;28;20029;-57
2021/11/25 02:22:00;;;;;;;1.48;0.90;;;;;;;2.97;71.78;99233.19;5050462;28;20025;-54
2021/11/25 02:24:26;;;;;;;2.95;1.33;;;;;;;2.99;71.31;99236.59;5050263;28;20086;-55
2021/11/25 02:26:51;;;;;;;3.30;1.30;;;;;;;2.98;71.41;99234.00;5050647;28;20033;-58
2021/11/25 02:29:17;;;;;;;2.13;1.30;;;;;;;2.98;72.08;99239.31;5050926;28;20278;-57
2021/11/25 02:31:43;;;;;;;3.17;1.30;;;;;;;3.03;71.71;99237.25;5050722;28;20870;-56
2021/11/25 02:34:08;;;;;;;3.85;1.42;;;;;;;3.04;70.71;99232.81;5049413;28;20462;-54
2021/11/25 02:36:34;;;;;;;4.50;1.40;;;;;;;3.09;71.00;99244.81;5050553;28;20060;-57
2021/11/25 02:38:59;;;;;;;2.80;1.30;;;;;;;3.13;71.27;99248.13;5055167;28;20096;-56
2021/11/25 02:41:26;;;;;;;3.03;1.42;;;;;;;3.17;70.33;99254.97;5054561;28;20025;-57
2021/11/25 02:43:53;;;;;;;3.17;1.05;;;;;;;3.20;70.33;99257.41;5054318;28;20103;-57
2021/11/25 02:46:19;;;;;;;2.72;1.30;;;;;;;3.18;70.19;99247.88;5054527;28;20108;-58
2021/11/25 02:48:48;;;;;;;2.65;1.13;;;;;;;3.05;70.46;99227.44;5054862;28;20385;-59
2021/11/25 02:51:18;;;;;;;2.58;1.27;;;;;;;3.32;70.23;99262.91;5052836;28;20056;-54
2021/11/25 02:53:44;;;;;;;2.47;1.48;;;;;;;3.30;69.55;99266.50;5054234;28;20037;-60
2021/11/25 02:56:16;;;;;;;3.35;1.67;;;;;;;3.35;69.73;99278.59;5054297;28;20120;-60
2021/11/25 02:58:45;;;;;;;1.98;1.17;;;;;;;3.31;69.39;99267.38;5054011;28;20052;-58
2021/11/25 03:01:15;;;;;;;3.08;1.23;;;;;;;3.30;69.69;99268.31;5054285;28;20029;-59
2021/11/25 03:03:41;;;;;;;6.63;1.40;;;;;;;3.29;69.47;99270.09;5054064;28;20067;-59
2021/11/25 03:06:07;;;;;;;1.95;1.20;;;;;;;3.29;69.52;99266.59;5054192;28;20032;-60
2021/11/25 03:08:33;;;;;;;2.28;1.27;;;;;;;3.28;69.87;99268.38;5054103;28;20028;-59
2021/11/25 03:11:20;;;;;;;3.95;1.23;;;;;;;3.40;70.03;99265.97;5052138;28;20025;-59
2021/11/25 03:13:49;;;;;;;1.70;1.00;;;;;;;3.37;69.55;99261.69;5053180;28;20029;-57
2021/11/25 03:16:16;;;;;;;1.73;1.10;;;;;;;3.32;69.62;99255.84;5053679;28;20029;-59
2021/11/25 03:18:42;;;;;;;1.95;1.00;;;;;;;3.28;69.72;99268.38;5053943;28;20104;-56
2021/11/25 03:21:10;;;;;;;2.55;0.98;;;;;;;3.03;69.47;99224.03;5052949;28;20133;-57
2021/11/25 03:23:37;;;;;;;3.45;1.25;;;;;;;3.23;70.19;99264.31;5053472;28;20033;-59
2021/11/25 03:26:05;;;;;;;1.45;0.90;;;;;;;3.15;69.93;99262.97;5053429;28;20389;-57
2021/11/25 03:28:32;;;;;;;1.45;1.30;;;;;;;2.97;70.00;99264.91;5053800;28;20039;-54
2021/11/25 03:30:58;;;;;;;4.18;0.95;;;;;;;2.87;70.79;99276.94;5053469;28;20099;-56
2021/11/25 03:33:27;;;;;;;2.90;1.00;;;;;;;2.80;70.84;99283.53;5053321;28;20037;-56
2021/11/25 03:35:54;;;;;;;2.38;0.80;;;;;;;2.75;70.35;99278.50;5053565;28;20029;-55
2021/11/25 03:38:20;;;;;;;1.23;0.90;;;;;;;2.76;70.80;99287.31;5053637;28;20083;-53
2021/11/25 03:40:46;;;;;;;1.98;1.20;;;;;;;2.77;70.66;99286.34;5053261;28;20037;-57
2021/11/25 03:43:12;;;;;;;1.52;1.00;;;;;;;2.83;70.65;99293.94;5053459;28;20061;-58
2021/11/25 03:45:38;;;;;;;2.47;0.95;;;;;;;2.86;70.54;99289.34;5053831;28;20072;-54
2021/11/25 03:48:04;;;;;;;2.65;1.02;;;;;;;2.89;69.88;99300.66;5053344;28;20393;-58
2021/11/25 03:50:30;;;;;;;3.33;1.17;;;;;;;2.92;69.15;99304.00;5052324;28;20021;-56
2021/11/25 03:52:55;;;;;;;2.15;0.73;;;;;;;2.97;69.70;99312.50;5052249;28;20029;-57
2021/11/25 03:55:21;;;;;;;3.28;1.02;;;;;;;3.03;68.94;99316.59;5053841;28;20036;-58
2021/11/25 03:57:48;;;;;;;3.20;1.60;;;;;;;3.04;69.17;99314.81;5053142;28;20029;-58
2021/11/25 04:00:16;;;;;;;5.13;1.42;;;;;;;3.12;68.89;99309.91;5052993;28;20074;-55
2021/11/25 04:02:43;;;;;;;1.92;1.27;;;;;;;3.15;68.52;99320.34;5053634;28;20575;-60
2021/11/25 04:05:09;;;;;;;3.22;1.83;;;;;;;3.14;68.72;99318.63;5053470;28;20037;-58
2021/11/25 04:07:35;;;;;;;3.95;1.38;;;;;;;3.11;68.84;99324.06;5051789;28;20494;-59
2021/11/25 04:10:01;;;;;;;5.63;2.00;;;;;;;3.02;69.10;99317.53;5052946;28;20115;-59
2021/11/25 04:12:28;;;;;;;3.20;1.38;;;;;;;2.91;69.03;99317.28;5053005;28;20029;-58
2021/11/25 04:14:54;;;;;;;3.35;1.08;;;;;;;2.84;69.50;99332.66;5053305;28;20032;-56
2021/11/25 04:17:21;;;;;;;1.60;1.13;;;;;;;2.83;68.40;99331.81;5051225;28;20036;-55
2021/11/25 04:19:48;;;;;;;1.88;1.30;;;;;;;2.67;68.72;99330.97;5052197;28;20037;-55
2021/11/25 04:22:14;;;;;;;3.53;1.30;;;;;;;2.77;69.21;99337.44;5052685;28;20389;-55
2021/11/25 04:24:39;;;;;;;2.25;1.20;;;;;;;2.76;68.79;99319.03;5052570;28;20036;-58
2021/11/25 04:27:05;;;;;;;2.40;1.33;;;;;;;2.86;69.16;99336.06;5052659;28;20165;-59
2021/11/25 04:29:32;;;;;;;9.20;1.75;;;;;;;2.87;68.83;99329.81;5052277;28;20481;-57
2021/11/25 04:37:25;;;;;;;3.35;1.65;;;;;;;2.91;68.81;99330.53;5052395;28;20461;-54
2021/11/25 04:39:51;;;;;;;3.92;1.60;;;;;;;2.99;68.79;99352.94;5051761;28;20073;-57
2021/11/25 04:42:17;;;;;;;27.00;12.05;;;;;;;3.02;69.28;99344.00;5051096;28;20504;-57
2021/11/25 04:44:45;;;;;;;7.72;3.75;;;;;;;3.06;69.57;99347.28;5052829;28;20047;-55
2021/11/25 04:47:11;;;;;;;9.52;4.40;;;;;;;3.10;68.83;99354.09;5051798;28;20461;-58
2021/11/25 04:49:37;;;;;;;5.75;1.95;;;;;;;3.11;69.22;99359.31;5051629;28;20983;-58
2021/11/25 04:52:03;;;;;;;4.32;1.75;;;;;;;3.15;68.73;99357.38;5051866;28;20056;-56
2021/11/25 04:54:29;;;;;;;4.75;1.50;;;;;;;3.13;69.14;99356.56;5051698;28;20028;-57
2021/11/25 04:56:55;;;;;;;4.85;1.52;;;;;;;3.14;69.14;99366.25;5051761;28;20481;-59
2021/11/25 04:59:20;;;;;;;2.08;1.42;;;;;;;3.16;69.36;99372.31;5051425;28;20040;-56
2021/11/25 05:01:46;;;;;;;2.72;1.48;;;;;;;3.21;68.83;99370.25;5051080;28;20029;-56
2021/11/25 05:04:11;;;;;;;3.47;1.42;;;;;;;3.25;69.27;99373.53;5051576;28;20025;-57
2021/11/25 05:06:37;;;;;;;2.53;1.58;;;;;;;3.27;69.00;99377.81;5050053;28;20520;-59
2021/11/25 05:09:04;;;;;;;3.35;1.40;;;;;;;3.29;69.32;99373.28;5051838;28;20031;-56
2021/11/25 05:11:29;;;;;;;3.20;1.55;;;;;;;3.28;68.90;99370.75;5051140;28;20108;-59
2021/11/25 05:13:55;;;;;;;4.53;1.67;;;;;;;3.32;69.09;99385.50;5051474;28;20445;-56
2021/11/25 05:16:20;;;;;;;3.63;1.60;;;;;;;3.30;69.34;99382.94;5051848;28;20504;-58
2021/11/25 05:18:46;;;;;;;3.08;1.90;;;;;;;3.31;69.92;99389.09;5051520;28;20389;-58
2021/11/25 05:21:12;;;;;;;4.25;1.83;;;;;;;3.28;69.35;99390.09;5051282;28;20405;-54
2021/11/25 05:23:37;;;;;;;3.17;1.80;;;;;;;3.24;69.99;99382.41;5051502;28;20029;-53
2021/11/25 05:26:03;;;;;;;4.43;1.80;;;;;;;3.00;69.88;99354.66;5051253;28;20037;-58
2021/11/25 05:28:29;;;;;;;5.63;2.05;;;;;;;3.22;70.20;99389.59;5050941;28;20040;-59
2021/11/25 05:30:55;;;;;;;4.60;1.92;;;;;;;3.21;70.24;99401.97;5050072;28;20049;-57
2021/11/25 05:33:20;;;;;;;3.47;2.25;;;;;;;3.19;70.59;99395.06;5051494;28;20041;-59
2021/11/25 05:35:46;;;;;;;4.40;1.92;;;;;;;3.17;70.48;99389.88;5051207;28;20044;-56
2021/11/25 05:38:13;;;;;;;2.50;1.60;;;;;;;3.11;70.50;99382.25;5050850;28;20090;-57
2021/11/25 05:40:39;;;;;;;6.32;1.80;;;;;;;3.22;70.91;99408.97;5051655;28;20021;-59
2021/11/25 05:43:04;;;;;;;3.10;1.30;;;;;;;3.25;70.35;99395.56;5050947;28;20032;-55
2021/11/25 05:45:30;;;;;;;1.85;1.25;;;;;;;3.25;70.36;99397.34;5050863;28;20020;-58
2021/11/25 05:47:56;;;;;;;3.30;1.50;;;;;;;3.29;69.84;99415.63;5050658;28;20198;-58
2021/11/25 05:50:24;;;;;;;2.33;1.63;;;;;;;3.34;70.08;99412.72;5051252;28;20025;-58
2021/11/25 05:52:52;;;;;;;2.72;1.48;;;;;;;3.39;70.02;99417.75;5050970;28;20102;-57
2021/11/25 05:55:19;;;;;;;1.67;1.35;;;;;;;3.32;70.32;99405.78;5050693;28;20094;-58
2021/11/25 05:57:45;;;;;;;2.15;1.42;;;;;;;3.35;70.23;99401.19;5051002;28;20075;-59
2021/11/25 06:00:13;;;;;;;5.10;1.67;;;;;;;3.39;70.78;99408.00;5051158;28;20164;-59
2021/11/25 06:02:44;;;;;;;5.05;1.63;;;;;;;3.44;69.81;99407.75;5050919;28;20120;-57
2021/11/25 06:05:12;;;;;;;3.70;1.63;;;;;;;3.46;70.03;99405.88;5049030;28;20029;-57
2021/11/25 06:07:42;;;;;;;2.45;1.52;;;;;;;3.49;70.70;99408.34;5049010;28;20029;-58
2021/11/25 06:10:08;;;;;;;3.05;1.70;;;;;;;3.55;70.15;99413.25;5047487;28;20040;-61
2021/11/25 06:12:34;;;;;;;6.47;2.75;;;;;;;3.61;70.13;99411.19;5050424;28;20040;-59
2021/11/25 06:14:59;;;;;;;3.00;1.65;;;;;;;3.62;70.02;99403.16;5050510;28;20033;-59
2021/11/25 06:17:25;;;;;;;5.82;1.83;;;;;;;3.64;69.88;99406.56;5050366;28;20034;-55
2021/11/25 06:19:53;;;;;;;2.97;1.88;;;;;;;3.69;69.43;99419.56;5051315;28;20037;-58
2021/11/25 06:22:20;;;;;;;4.93;1.77;;;;;;;3.73;69.68;99413.13;5050812;28;20504;-57
2021/11/25 06:24:46;;;;;;;3.05;2.00;;;;;;;3.75;69.62;99416.53;5050379;28;20032;-57
2021/11/25 06:27:11;;;;;;;4.72;2.08;;;;;;;3.82;69.02;99420.53;5050631;28;20035;-60
2021/11/25 06:29:37;;;;;;;3.15;2.00;;;;;;;3.80;68.92;99417.13;5050735;28;20053;-57
2021/11/25 06:32:03;;;;;;;4.15;2.15;;;;;;;3.87;69.37;99420.25;5050485;28;20051;-56
2021/11/25 06:34:29;;;;;;;5.00;2.80;;;;;;;3.96;69.50;99424.16;5042998;28;20037;-59
2021/11/25 06:36:54;;;;;;;3.50;2.30;;;;;;;4.11;68.77;99423.25;5049702;28;20396;-59
2021/11/25 06:39:20;;;;;;;4.32;2.17;;;;;;;4.19;68.71;99413.97;5036237;28;20131;-59
2021/11/25 06:41:46;;;;;;;2.78;1.95;;;;;;;4.31;67.72;99421.16;5030377;28;20385;-59
2021/11/25 06:44:11;;;;;;;3.92;1.77;;;;;;;4.33;67.48;99413.13;5030176;28;20458;-58
2021/11/25 06:46:37;;;;;;;3.55;2.05;;;;;;;4.33;67.59;99421.91;5028924;28;20034;-57
2021/11/25 06:49:03;;;;;;;3.85;1.83;;;;;;;4.37;67.45;99420.81;5030451;28;20061;-57
2021/11/25 06:51:29;;;;;;;2.63;1.80;;;;;;;4.29;67.28;99415.97;5030505;28;20040;-57
2021/11/25 06:53:55;;;;;;;4.30;1.60;;;;;;;4.33;67.83;99429.03;5029084;28;20029;-53
2021/11/25 06:56:21;;;;;;;4.10;1.88;;;;;;;4.33;67.61;99436.97;5030652;28;20037;-57
2021/11/25 06:58:49;;;;;;;4.05;1.80;;;;;;;4.33;67.31;99427.22;5030444;28;20082;-57
2021/11/25 07:01:15;;;;;;;4.40;2.10;;;;;;;4.34;67.90;99423.66;5030147;28;20060;-57
2021/11/25 07:03:40;;;;;;;3.47;1.60;;;;;;;4.35;67.83;99432.44;5030447;28;20426;-58
2021/11/25 07:06:06;;;;;;;3.53;2.10;;;;;;;4.36;67.59;99439.44;5029092;28;20029;-58
2021/11/25 07:08:31;;;;;;;2.95;1.80;;;;;;;4.32;67.77;99438.75;5028650;28;20033;-59
2021/11/25 07:10:58;;;;;;;5.93;1.80;;;;;;;4.30;68.16;99440.66;5030387;28;20044;-56
2021/11/25 07:13:27;;;;;;;2.08;1.58;;;;;;;4.24;67.92;99435.75;5030711;28;20033;-54
2021/11/25 07:15:53;;;;;;;3.25;1.80;;;;;;;4.24;68.47;99441.03;5030176;28;20112;-56
2021/11/25 07:18:19;;;;;;;5.45;1.80;;;;;;;4.20;68.24;99444.81;5030193;28;20033;-59
2021/11/25 07:20:45;;;;;;;3.35;2.10;;;;;;;4.20;68.88;99458.06;5030433;28;20517;-56
2021/11/25 07:23:11;;;;;;;4.60;2.35;;;;;;;4.18;68.66;99441.41;5029896;28;20037;-57
2021/11/25 07:25:36;;;;;;;3.03;2.28;;;;;;;4.01;68.43;99406.19;5032984;28;20034;-57
2021/11/25 07:28:02;;;;;;;3.78;2.33;;;;;;;4.31;67.86;99455.63;5034261;28;20030;-55
2021/11/25 07:30:28;;;;;;;5.35;2.70;;;;;;;4.36;68.54;99455.34;5032375;28;20052;-59
2021/11/25 07:32:54;;;;;;;3.35;2.30;;;;;;;4.40;67.97;99452.44;5032602;28;20034;-58
2021/11/25 07:35:21;;;;;;;4.53;2.13;;;;;;;4.44;67.75;99455.72;5033763;28;20045;-58
2021/11/25 07:37:49;;;;;;;5.55;2.30;;;;;;;4.49;67.79;99458.97;5016383;28;20474;-60
2021/11/25 07:40:15;;;;;;;2.90;1.83;;;;;;;4.57;67.15;99464.63;5033565;28;20063;-59
2021/11/25 07:42:42;;;;;;;3.50;2.20;;;;;;;4.63;66.90;99458.13;5033535;28;20029;-60
2021/11/25 07:45:08;;;;;;;4.85;2.50;;;;;;;4.71;66.68;99466.44;5034341;28;20026;-58
2021/11/25 07:48:03;;;;;;;6.82;2.58;;;;;;;4.81;66.41;99465.84;5035301;28;20037;-56
2021/11/25 07:50:40;;;;;;;5.95;2.50;;;;;;;4.84;66.50;99461.22;5036052;28;20052;-60
2021/11/25 07:53:07;;;;;;;5.75;2.30;;;;;;;4.79;66.29;99463.31;5043839;28;20071;-58
2021/11/25 07:55:32;;;;;;;3.60;2.15;;;;;;;4.78;66.62;99466.91;5051279;28;20057;-57
2021/11/25 07:57:58;;;;;;;3.80;2.55;;;;;;;4.78;66.74;99468.69;5045682;28;20516;-58
2021/11/25 08:00:27;;;;;;;6.28;2.88;;;;;;;4.74;66.87;99466.25;5047810;28;20465;-59
2021/11/25 08:02:53;;;;;;;4.55;1.92;;;;;;;4.50;66.82;99428.84;5048311;28;20033;-54
2021/11/25 08:05:19;;;;;;;4.30;2.40;;;;;;;4.70;67.33;99459.44;5054947;28;20042;-58
2021/11/25 08:07:45;;;;;;;5.05;2.47;;;;;;;4.74;67.52;99462.75;5043141;28;20384;-60
2021/11/25 08:10:13;;;;;;;6.25;2.70;;;;;;;4.85;67.44;99470.88;5040244;28;20040;-61
2021/11/25 08:12:40;;;;;;;5.38;2.33;;;;;;;4.87;66.78;99473.44;5041966;28;20040;-55
2021/11/25 08:15:06;;;;;;;5.25;2.72;;;;;;;4.91;67.00;99464.34;5044053;28;20477;-62
2021/11/25 08:17:32;;;;;;;7.88;3.13;;;;;;;4.94;66.95;99460.63;5042057;28;20393;-60
2021/11/25 08:19:58;;;;;;;4.93;2.80;;;;;;;4.99;67.10;99464.69;5041908;28;20178;-61
2021/11/25 08:22:23;;;;;;;5.43;2.38;;;;;;;4.75;66.96;99429.97;5042324;28;20049;-62
2021/11/25 08:24:50;;;;;;;5.43;2.92;;;;;;;4.99;66.87;99472.66;5047650;28;20025;-61
2021/11/25 08:27:16;;;;;;;5.50;2.65;;;;;;;4.98;66.69;99473.59;5042957;28;20025;-61
2021/11/25 08:29:43;;;;;;;4.30;2.20;;;;;;;5.02;66.40;99469.81;5042594;28;20037;-62
2021/11/25 08:32:09;;;;;;;3.60;2.55;;;;;;;5.03;66.05;99466.19;5040594;28;20184;-60
2021/11/25 08:34:35;;;;;;;4.90;2.38;;;;;;;5.03;66.44;99468.03;5042403;28;20450;-60
2021/11/25 08:37:01;;;;;;;7.57;2.92;;;;;;;4.80;66.21;99424.34;5042804;28;20032;-62
2021/11/25 08:39:27;;;;;;;5.78;3.42;;;;;;;5.01;66.10;99454.84;5027461;28;20469;-62
2021/11/25 08:41:53;;;;;;;4.55;2.80;;;;;;;5.00;66.12;99447.81;5041964;28;20036;-62
2021/11/25 08:44:19;;;;;;;4.40;2.72;;;;;;;5.20;66.36;99469.59;5041631;28;20037;-61
2021/11/25 08:46:44;;;;;;;4.13;2.65;;;;;;;5.23;65.86;99453.47;5041142;28;20087;-61
2021/11/25 08:49:11;;;;;;;6.10;2.55;;;;;;;5.31;65.27;99459.16;5045533;28;20532;-61
2021/11/25 08:51:37;;;;;;;4.25;2.58;;;;;;;5.15;64.85;99434.53;5044703;28;20033;-59
2021/11/25 08:54:03;;;;;;;4.30;2.83;;;;;;;5.25;64.92;99462.19;5046324;28;20128;-61
2021/11/25 08:56:29;;;;;;;4.03;2.83;;;;;;;5.31;65.18;99469.78;5035969;28;20477;-63
2021/11/25 08:58:56;;;;;;;4.78;3.03;;;;;;;5.30;65.61;99468.06;5051220;28;20041;-62
2021/11/25 09:01:22;;;;;;;3.97;3.03;;;;;;;5.12;65.21;99426.78;5043009;28;20530;-57
2021/11/25 09:03:48;;;;;;;7.80;2.78;;;;;;;5.42;64.98;99468.22;5061513;28;20029;-62
2021/11/25 09:06:14;;;;;;;6.15;3.10;;;;;;;5.45;64.43;99470.66;5062654;28;20532;-62
2021/11/25 09:08:40;;;;;;;6.80;3.13;;;;;;;5.45;64.80;99475.97;5053506;28;20477;-59
2021/11/25 09:11:06;;;;;;;6.50;3.58;;;;;;;5.32;64.48;99450.22;5037814;28;20023;-57
2021/11/25 09:13:33;;;;;;;8.85;3.85;;;;;;;5.53;64.68;99472.81;5063730;28;20025;-55
2021/11/25 09:15:58;;;;;;;5.28;3.90;;;;;;;5.52;64.36;99457.84;5061422;28;20032;-63
2021/11/25 09:18:24;;;;;;;9.63;4.20;;;;;;;5.55;64.55;99461.16;5067312;28;20503;-63
2021/11/25 09:20:50;;;;;;;5.68;4.13;;;;;;;5.59;64.26;99461.78;5053742;28;20028;-58
2021/11/25 09:23:18;;;;;;;6.53;3.38;;;;;;;5.50;64.28;99444.66;5028973;28;20029;-58
2021/11/25 09:25:44;;;;;;;6.65;3.90;;;;;;;5.31;64.18;99424.66;5047608;28;20025;-56
2021/11/25 09:28:17;;;;;;;7.50;4.47;;;;;;;5.44;64.21;99431.78;5056574;28;20048;-60
2021/11/25 09:30:44;;;;;;;6.85;4.05;;;;;;;5.56;63.94;99465.53;5066799;28;20040;-56
2021/11/25 09:33:11;;;;;;;4.88;3.90;;;;;;;5.55;64.19;99460.28;5054634;28;20035;-63
2021/11/25 09:35:37;;;;;;;5.82;3.92;;;;;;;5.50;64.81;99465.91;5063127;28;20029;-59
2021/11/25 09:38:04;;;;;;;4.70;3.58;;;;;;;5.22;64.68;99427.88;5047714;28;20032;-59
2021/11/25 09:40:30;;;;;;;4.95;3.30;;;;;;;5.42;64.73;99457.59;5044442;28;20033;-61
2021/11/25 09:43:02;;;;;;;7.38;3.67;;;;;;;5.38;65.21;99459.59;5046853;28;20044;-57
2021/11/25 09:45:28;;;;;;;5.43;3.28;;;;;;;5.26;65.56;99447.94;5059046;28;20351;-57
2021/11/25 09:48:02;;;;;;;5.88;3.20;;;;;;;5.30;65.72;99454.78;5050194;28;20031;-58
2021/11/25 09:50:30;;;;;;;6.30;3.75;;;;;;;5.31;66.21;99450.31;5050766;28;20496;-61
2021/11/25 09:53:01;;;;;;;6.07;3.40;;;;;;;5.08;65.72;99415.50;5066457;28;20021;-61
2021/11/25 09:55:27;;;;;;;5.43;3.08;;;;;;;5.28;65.49;99454.00;5063760;28;20025;-60
2021/11/25 09:57:53;;;;;;;6.45;3.80;;;;;;;5.28;66.07;99453.19;5056872;28;20027;-60
2021/11/25 10:00:22;;;;;;;7.88;3.45;;;;;;;5.27;65.89;99449.66;5050884;28;20047;-61
2021/11/25 10:02:48;;;;;;;4.60;3.20;;;;;;;5.29;65.55;99450.41;5043103;28;20473;-57
2021/11/25 10:05:14;;;;;;;6.90;3.20;;;;;;;5.31;65.52;99459.16;5038553;28;20461;-57
2021/11/25 10:07:41;;;;;;;5.93;3.38;;;;;;;5.34;65.69;99451.94;5060425;28;20420;-58
2021/11/25 10:10:32;;;;;;;4.63;2.80;;;;;;;5.38;65.31;99451.63;5061944;28;20059;-58
2021/11/25 10:13:11;;;;;;;4.82;3.10;;;;;;;5.33;65.91;99451.06;5053333;28;20036;-57
2021/11/25 10:15:38;;;;;;;5.25;3.38;;;;;;;5.37;65.70;99454.38;5061652;28;20051;-57
2021/11/25 10:18:24;;;;;;;6.70;3.58;;;;;;;5.44;65.61;99451.25;5060554;28;20361;-55
2021/11/25 10:20:52;;;;;;;5.20;3.30;;;;;;;5.34;66.06;99446.63;5038411;28;20489;-63
2021/11/25 10:23:26;;;;;;;4.28;3.05;;;;;;;5.43;65.35;99448.66;5064678;28;20037;-55
2021/11/25 10:25:56;;;;;;;4.85;3.20;;;;;;;5.32;65.30;99439.63;5059107;28;20445;-58
2021/11/25 10:28:23;;;;;;;3.67;2.95;;;;;;;5.29;65.51;99438.97;5055757;28;20037;-58
2021/11/25 10:30:52;;;;;;;4.20;2.60;;;;;;;5.19;65.67;99430.72;5062641;28;20076;-61
2021/11/25 10:33:31;;;;;;;3.28;2.85;;;;;;;5.23;65.96;99423.44;5042741;28;20042;-58
2021/11/25 10:38:45;;;;;;;4.75;2.83;;;;;;;5.00;65.30;99389.47;5060531;28;20111;-57
2021/11/25 10:41:17;;;;;;;3.15;2.60;;;;;;;5.14;65.50;99403.66;5052932;28;20032;-59
2021/11/25 10:43:43;;;;;;;3.55;2.70;;;;;;;5.12;65.78;99429.44;5060004;28;20021;-60
2021/11/25 10:46:09;;;;;;;4.70;2.88;;;;;;;5.12;65.58;99413.50;5053368;28;20037;-60
2021/11/25 10:48:39;;;;;;;5.43;3.20;;;;;;;5.16;65.69;99421.16;5062541;28;20461;-57
2021/11/25 10:51:33;;;;;;;4.72;3.10;;;;;;;5.32;66.43;99423.69;5051787;28;20036;-60
2021/11/25 10:54:13;;;;;;;5.32;3.08;;;;;;;5.34;65.37;99420.91;5058231;28;20025;-62
2021/11/25 10:56:40;;;;;;;4.80;2.97;;;;;;;5.37;65.65;99412.75;5063609;28;20174;-58
2021/11/25 10:59:07;;;;;;;7.35;3.83;;;;;;;5.44;65.53;99414.06;5052119;28;20124;-54
2021/11/25 11:01:39;;;;;;;7.32;4.03;;;;;;;5.57;65.06;99414.09;5064822;28;20091;-55
2021/11/25 11:04:05;;;;;;;6.30;3.60;;;;;;;5.59;64.54;99398.06;5064815;28;20033;-57
2021/11/25 11:06:34;;;;;;;5.03;2.80;;;;;;;5.54;64.62;99390.38;5057679;28;20468;-56
2021/11/25 11:09:02;;;;;;;4.28;3.05;;;;;;;5.63;64.86;99406.69;5069832;28;20112;-59
2021/11/25 11:11:28;;;;;;;3.92;2.60;;;;;;;5.58;64.12;99397.22;5047670;28;20028;-60
2021/11/25 11:17:58;;;;;;;10.38;6.30;;;;;;;5.73;64.38;99405.97;5054617;28;20032;-59
2021/11/25 11:20:28;;;;;;;5.70;2.70;;;;;;;5.74;64.84;99412.09;5068389;28;20040;-61
2021/11/25 11:22:59;;;;;;;3.65;2.50;;;;;;;5.48;64.30;99374.88;5050225;28;20044;-61
2021/11/25 11:25:26;;;;;;;4.03;2.58;;;;;;;5.55;64.33;99409.84;5060677;28;20054;-60
2021/11/25 11:27:55;;;;;;;5.28;2.72;;;;;;;5.44;64.37;99395.47;5063460;28;20761;-61
2021/11/25 11:30:22;;;;;;;3.53;2.30;;;;;;;5.48;64.78;99412.03;5066292;28;20053;-64
2021/11/25 11:32:49;;;;;;;3.83;2.45;;;;;;;5.22;65.00;99364.19;5054189;28;20079;-55
2021/11/25 11:35:19;;;;;;;4.25;3.08;;;;;;;5.41;64.53;99400.13;5052383;28;20025;-60
2021/11/25 11:37:44;;;;;;;6.00;2.90;;;;;;;5.14;65.02;99371.81;5035569;28;20025;-59
2021/11/25 11:40:11;;;;;;;7.65;3.70;;;;;;;5.19;65.36;99390.09;5041828;28;20044;-54
2021/11/25 11:42:37;;;;;;;6.30;3.90;;;;;;;5.22;65.21;99396.03;5032838;28;20026;-61
2021/11/25 11:45:03;;;;;;;5.20;3.70;;;;;;;5.34;65.43;99409.47;5032245;28;20021;-64
2021/11/25 11:47:30;;;;;;;4.85;3.72;;;;;;;5.28;65.50;99387.66;5032648;28;20037;-67
2021/11/25 11:50:02;;;;;;;5.97;3.72;;;;;;;5.36;65.49;99394.28;5032780;28;20095;-62
2021/11/25 11:52:29;;;;;;;6.68;3.78;;;;;;;5.42;65.21;99405.31;5031704;28;20113;-57